CCA2727 ZUTF-ZYTX
Flight info
| Callsign | CCA2727 |
|---|---|
| Flight time | N/A |
| Altitude | 35100 |
| Route | SAGPI9G SAGPI W81 APIMI W275 WJC G212 MUDAM G332 CHG A575 OMDUS OMD73A |
| Aircraft | A321/M-SDE3FGHIRWY/LB1 |
Departure
| Time | 2026-05-04 12:06 |
|---|---|
| Airport | Chengdu Tianfu International Airport (ZUTF) |
Arrival
| Time | N/A |
|---|---|
| Airport | Shenyang Taoxian International Airport (ZYTX) |
| Time | Latitude | Longitude | Altitude | Speed | Heading |
|---|---|---|---|---|---|
| 2026-05-04 11:20 | 30.31058 | 104.44136 | 1452 ft | 0 kts | 112° |
| 2026-05-04 11:51 | 30.31061 | 104.44128 | 1453 ft | 3 kts | 112° |
| 2026-05-04 11:51 | 30.31066 | 104.44113 | 1449 ft | 3 kts | 112° |
| 2026-05-04 11:51 | 30.31074 | 104.44092 | 1450 ft | 3 kts | 112° |
| 2026-05-04 11:52 | 30.31082 | 104.44070 | 1451 ft | 3 kts | 112° |
| 2026-05-04 11:52 | 30.31089 | 104.44050 | 1451 ft | 0 kts | 112° |
| 2026-05-04 11:52 | 30.31089 | 104.44049 | 1451 ft | 0 kts | 112° |
| 2026-05-04 11:56 | 30.31086 | 104.44054 | 1453 ft | 1 kts | 123° |
| 2026-05-04 11:56 | 30.31075 | 104.44060 | 1453 ft | 2 kts | 161° |
| 2026-05-04 11:57 | 30.31054 | 104.44061 | 1453 ft | 4 kts | 183° |
| 2026-05-04 11:57 | 30.31025 | 104.44051 | 1453 ft | 5 kts | 199° |
| 2026-05-04 11:57 | 30.30983 | 104.44034 | 1453 ft | 7 kts | 203° |
| 2026-05-04 11:57 | 30.30940 | 104.44012 | 1453 ft | 7 kts | 204° |
| 2026-05-04 11:58 | 30.30887 | 104.43986 | 1453 ft | 9 kts | 203° |
| 2026-05-04 11:58 | 30.30820 | 104.43955 | 1453 ft | 11 kts | 201° |
| 2026-05-04 11:58 | 30.30742 | 104.43918 | 1454 ft | 13 kts | 202° |
| 2026-05-04 11:58 | 30.30653 | 104.43882 | 1454 ft | 14 kts | 201° |
| 2026-05-04 11:59 | 30.30557 | 104.43837 | 1454 ft | 16 kts | 202° |
| 2026-05-04 11:59 | 30.30484 | 104.43894 | 1455 ft | 15 kts | 113° |
| 2026-05-04 11:59 | 30.30442 | 104.44006 | 1452 ft | 16 kts | 113° |
| 2026-05-04 11:59 | 30.30399 | 104.44128 | 1453 ft | 17 kts | 112° |
| 2026-05-04 12:00 | 30.30354 | 104.44255 | 1457 ft | 18 kts | 112° |
| 2026-05-04 12:00 | 30.30307 | 104.44389 | 1458 ft | 18 kts | 112° |
| 2026-05-04 12:00 | 30.30258 | 104.44527 | 1459 ft | 19 kts | 112° |
| 2026-05-04 12:00 | 30.30215 | 104.44649 | 1456 ft | 11 kts | 112° |
| 2026-05-04 12:01 | 30.30251 | 104.44713 | 1459 ft | 11 kts | 25° |
| 2026-05-04 12:01 | 30.30332 | 104.44752 | 1459 ft | 13 kts | 21° |
| 2026-05-04 12:02 | 30.31074 | 104.45100 | 1452 ft | 25 kts | 22° |
| 2026-05-04 12:03 | 30.31249 | 104.45182 | 1444 ft | 29 kts | 22° |
| 2026-05-04 12:03 | 30.31425 | 104.45265 | 1443 ft | 21 kts | 22° |
| 2026-05-04 12:03 | 30.31541 | 104.45341 | 1443 ft | 13 kts | 77° |
| 2026-05-04 12:03 | 30.31514 | 104.45446 | 1443 ft | 14 kts | 112° |
| 2026-05-04 12:04 | 30.31477 | 104.45550 | 1443 ft | 14 kts | 112° |
| 2026-05-04 12:04 | 30.31438 | 104.45661 | 1443 ft | 16 kts | 112° |
| 2026-05-04 12:04 | 30.31393 | 104.45789 | 1443 ft | 18 kts | 112° |
| 2026-05-04 12:04 | 30.31358 | 104.45913 | 1443 ft | 11 kts | 81° |
| 2026-05-04 12:05 | 30.31428 | 104.45965 | 1442 ft | 14 kts | 21° |
| 2026-05-04 12:05 | 30.31490 | 104.46046 | 1443 ft | 15 kts | 89° |
| 2026-05-04 12:05 | 30.31464 | 104.46142 | 1443 ft | 12 kts | 112° |
| 2026-05-04 12:05 | 30.31385 | 104.46364 | 1442 ft | 60 kts | 112° |
| 2026-05-04 12:06 | 30.31141 | 104.47055 | 1441 ft | 123 kts | 112° |
| 2026-05-04 12:06 | 30.30751 | 104.48158 | 1440 ft | 171 kts | 112° |
| 2026-05-04 12:06 | 30.30256 | 104.49524 | 1837 ft | 181 kts | 114° |
| 2026-05-04 12:06 | 30.29778 | 104.50851 | 2665 ft | 175 kts | 111° |
| 2026-05-04 12:07 | 30.29656 | 104.52250 | 3278 ft | 179 kts | 79° |
| 2026-05-04 12:07 | 30.30264 | 104.53528 | 3965 ft | 186 kts | 47° |
| 2026-05-04 12:07 | 30.31262 | 104.54513 | 4805 ft | 184 kts | 44° |
| 2026-05-04 12:07 | 30.32164 | 104.55566 | 5255 ft | 190 kts | 50° |
| 2026-05-04 12:08 | 30.33087 | 104.56778 | 5419 ft | 212 kts | 51° |
| 2026-05-04 12:08 | 30.34106 | 104.58136 | 5641 ft | 235 kts | 50° |
| 2026-05-04 12:08 | 30.35232 | 104.59624 | 5836 ft | 257 kts | 48° |
| 2026-05-04 12:08 | 30.36471 | 104.61237 | 6117 ft | 277 kts | 49° |
| 2026-05-04 12:09 | 30.37780 | 104.62919 | 6717 ft | 284 kts | 49° |
| 2026-05-04 12:09 | 30.39119 | 104.64628 | 7395 ft | 289 kts | 48° |
| 2026-05-04 12:09 | 30.40480 | 104.66356 | 8060 ft | 293 kts | 48° |
| 2026-05-04 12:09 | 30.41865 | 104.68107 | 8801 ft | 296 kts | 47° |
| 2026-05-04 12:10 | 30.43263 | 104.69871 | 9482 ft | 300 kts | 47° |
| 2026-05-04 12:10 | 30.44677 | 104.71656 | 10133 ft | 303 kts | 47° |
| 2026-05-04 12:10 | 30.46106 | 104.73462 | 10801 ft | 305 kts | 47° |
| 2026-05-04 12:10 | 30.47543 | 104.75281 | 11476 ft | 306 kts | 46° |
| 2026-05-04 12:11 | 30.49015 | 104.77143 | 11774 ft | 324 kts | 46° |
| 2026-05-04 12:11 | 30.50593 | 104.79132 | 11930 ft | 345 kts | 45° |
| 2026-05-04 12:11 | 30.52436 | 104.81016 | 12039 ft | 363 kts | 34° |
| 2026-05-04 12:11 | 30.54682 | 104.82549 | 12364 ft | 374 kts | 23° |
| 2026-05-04 12:12 | 30.57121 | 104.83624 | 12962 ft | 377 kts | 18° |
| 2026-05-04 12:12 | 30.59601 | 104.84639 | 13613 ft | 379 kts | 19° |
| 2026-05-04 12:12 | 30.62092 | 104.85670 | 14241 ft | 381 kts | 18° |
| 2026-05-04 12:12 | 30.64586 | 104.86707 | 14853 ft | 382 kts | 18° |
| 2026-05-04 12:13 | 30.67099 | 104.87751 | 15487 ft | 384 kts | 18° |
| 2026-05-04 12:14 | 30.84993 | 104.95364 | 19417 ft | 403 kts | 25° |
| 2026-05-04 12:15 | 30.87329 | 104.97212 | 19856 ft | 411 kts | 37° |
| 2026-05-04 12:15 | 30.89319 | 104.99641 | 20292 ft | 420 kts | 49° |
| 2026-05-04 12:15 | 30.90857 | 105.02567 | 20702 ft | 429 kts | 61° |
| 2026-05-04 12:15 | 30.92058 | 105.05775 | 21140 ft | 433 kts | 63° |
| 2026-05-04 12:16 | 30.93258 | 105.08999 | 21573 ft | 435 kts | 63° |
| 2026-05-04 12:16 | 30.94471 | 105.12239 | 21977 ft | 438 kts | 63° |
| 2026-05-04 12:16 | 30.95692 | 105.15498 | 22393 ft | 441 kts | 63° |
| 2026-05-04 12:16 | 30.96920 | 105.18785 | 22800 ft | 443 kts | 63° |
| 2026-05-04 12:17 | 30.98151 | 105.22084 | 23195 ft | 446 kts | 63° |
| 2026-05-04 12:17 | 30.99387 | 105.25404 | 23601 ft | 448 kts | 63° |
| 2026-05-04 12:17 | 31.00626 | 105.28747 | 23920 ft | 451 kts | 63° |
| 2026-05-04 12:17 | 31.01873 | 105.32119 | 24242 ft | 454 kts | 63° |
| 2026-05-04 12:18 | 31.03120 | 105.35497 | 24550 ft | 456 kts | 63° |
| 2026-05-04 12:18 | 31.04382 | 105.38909 | 24852 ft | 459 kts | 63° |
| 2026-05-04 12:18 | 31.05696 | 105.42317 | 25146 ft | 460 kts | 58° |
| 2026-05-04 12:18 | 31.07259 | 105.45625 | 25449 ft | 462 kts | 57° |
| 2026-05-04 12:19 | 31.08825 | 105.48912 | 25742 ft | 464 kts | 57° |
| 2026-05-04 12:19 | 31.10396 | 105.52218 | 26039 ft | 467 kts | 57° |
| 2026-05-04 12:19 | 31.11973 | 105.55545 | 26328 ft | 469 kts | 57° |
| 2026-05-04 12:19 | 31.13552 | 105.58882 | 26610 ft | 472 kts | 57° |
| 2026-05-04 12:20 | 31.15139 | 105.62243 | 26902 ft | 474 kts | 57° |
| 2026-05-04 12:20 | 31.16739 | 105.65634 | 27196 ft | 477 kts | 57° |
| 2026-05-04 12:20 | 31.18339 | 105.69028 | 27485 ft | 479 kts | 57° |
| 2026-05-04 12:20 | 31.19955 | 105.72454 | 27782 ft | 482 kts | 57° |
| 2026-05-04 12:21 | 31.21577 | 105.75896 | 28055 ft | 484 kts | 57° |
| 2026-05-04 12:21 | 31.23198 | 105.79341 | 28431 ft | 484 kts | 57° |
| 2026-05-04 12:21 | 31.24815 | 105.82789 | 28824 ft | 484 kts | 57° |
| 2026-05-04 12:21 | 31.26427 | 105.86235 | 29211 ft | 484 kts | 57° |
| 2026-05-04 12:22 | 31.28044 | 105.89692 | 29591 ft | 484 kts | 57° |
| 2026-05-04 12:22 | 31.29660 | 105.93141 | 29973 ft | 484 kts | 57° |
| 2026-05-04 12:22 | 31.31285 | 105.96602 | 30277 ft | 484 kts | 57° |
| 2026-05-04 12:22 | 31.32905 | 106.00054 | 30581 ft | 485 kts | 57° |
| 2026-05-04 12:23 | 31.34524 | 106.03502 | 30870 ft | 485 kts | 56° |
| 2026-05-04 12:23 | 31.35727 | 106.05759 | 31041 ft | 482 kts | 50° |
| 2026-05-04 12:23 | 31.37815 | 106.08800 | 31310 ft | 476 kts | 41° |
| 2026-05-04 12:23 | 31.40088 | 106.11603 | 31598 ft | 475 kts | 41° |
| 2026-05-04 12:24 | 31.42364 | 106.14411 | 31897 ft | 475 kts | 41° |
| 2026-05-04 12:24 | 31.45370 | 106.18137 | 32287 ft | 475 kts | 40° |
| 2026-05-04 12:24 | 31.46899 | 106.20045 | 32493 ft | 475 kts | 41° |
| 2026-05-04 12:24 | 31.49887 | 106.23796 | 32883 ft | 475 kts | 41° |
| 2026-05-04 12:25 | 31.51409 | 106.25710 | 33093 ft | 475 kts | 40° |
| 2026-05-04 12:25 | 31.53663 | 106.28549 | 33383 ft | 475 kts | 40° |
| 2026-05-04 12:25 | 31.55910 | 106.31379 | 33651 ft | 476 kts | 40° |
| 2026-05-04 12:25 | 31.58164 | 106.34219 | 33945 ft | 475 kts | 40° |
| 2026-05-04 12:26 | 31.60418 | 106.37059 | 34183 ft | 475 kts | 40° |
| 2026-05-04 12:26 | 31.62666 | 106.39889 | 34403 ft | 475 kts | 40° |
| 2026-05-04 12:26 | 31.64934 | 106.42728 | 34604 ft | 475 kts | 39° |
| 2026-05-04 12:26 | 31.67202 | 106.45541 | 34817 ft | 476 kts | 39° |
| 2026-05-04 12:27 | 31.69487 | 106.48361 | 35016 ft | 476 kts | 39° |
| 2026-05-04 12:27 | 31.71770 | 106.51178 | 35091 ft | 477 kts | 39° |
| 2026-05-04 12:27 | 31.76339 | 106.56846 | 35101 ft | 477 kts | 39° |
| 2026-05-04 12:28 | 31.80889 | 106.62520 | 35102 ft | 477 kts | 39° |
| 2026-05-04 12:28 | 31.85433 | 106.68188 | 35102 ft | 477 kts | 39° |
| 2026-05-04 12:29 | 31.90014 | 106.73911 | 35105 ft | 477 kts | 39° |
| 2026-05-04 12:29 | 31.94566 | 106.79605 | 35127 ft | 478 kts | 40° |
| 2026-05-04 12:30 | 31.99115 | 106.85314 | 35134 ft | 478 kts | 40° |
| 2026-05-04 12:30 | 32.03665 | 106.91020 | 35143 ft | 477 kts | 40° |
| 2026-05-04 12:31 | 32.08210 | 106.96723 | 35148 ft | 477 kts | 40° |
| 2026-05-04 12:31 | 32.12771 | 107.02412 | 35151 ft | 476 kts | 40° |
| 2026-05-04 12:32 | 32.19594 | 107.10914 | 35155 ft | 475 kts | 40° |
| 2026-05-04 12:33 | 32.24102 | 107.16625 | 35158 ft | 478 kts | 45° |
| 2026-05-04 12:33 | 32.27520 | 107.23465 | 35162 ft | 493 kts | 64° |
| 2026-05-04 12:34 | 32.29854 | 107.31101 | 35158 ft | 493 kts | 65° |
| 2026-05-04 12:34 | 32.32206 | 107.38716 | 35152 ft | 492 kts | 65° |
| 2026-05-04 12:35 | 32.34560 | 107.46326 | 35157 ft | 493 kts | 65° |
| 2026-05-04 12:35 | 32.36894 | 107.53950 | 35167 ft | 493 kts | 65° |
| 2026-05-04 12:36 | 32.39213 | 107.61577 | 35166 ft | 493 kts | 65° |
| 2026-05-04 12:36 | 32.41541 | 107.69207 | 35162 ft | 492 kts | 65° |
| 2026-05-04 12:37 | 32.43880 | 107.76874 | 35160 ft | 492 kts | 65° |
| 2026-05-04 12:37 | 32.46187 | 107.84483 | 35160 ft | 491 kts | 65° |
| 2026-05-04 12:38 | 32.48490 | 107.92104 | 35154 ft | 490 kts | 64° |
| 2026-05-04 12:38 | 32.49914 | 107.95717 | 35147 ft | 481 kts | 53° |
| 2026-05-04 12:38 | 32.51826 | 107.98932 | 35150 ft | 473 kts | 43° |
| 2026-05-04 12:39 | 32.56760 | 108.03814 | 35142 ft | 456 kts | 23° |
| 2026-05-04 12:39 | 32.62555 | 108.06504 | 35131 ft | 444 kts | 11° |
| 2026-05-04 12:40 | 32.68495 | 108.08592 | 35124 ft | 446 kts | 11° |
| 2026-05-04 12:40 | 32.74433 | 108.10696 | 35119 ft | 446 kts | 11° |
| 2026-05-04 12:41 | 32.80385 | 108.12807 | 35112 ft | 446 kts | 11° |
| 2026-05-04 12:41 | 32.86336 | 108.14918 | 35106 ft | 446 kts | 11° |
| 2026-05-04 12:42 | 32.92284 | 108.17032 | 35109 ft | 446 kts | 11° |
| 2026-05-04 12:42 | 32.98233 | 108.19148 | 35106 ft | 446 kts | 11° |
| 2026-05-04 12:43 | 33.04181 | 108.21263 | 35112 ft | 446 kts | 11° |
| 2026-05-04 12:43 | 33.10132 | 108.23389 | 35108 ft | 446 kts | 12° |
| 2026-05-04 12:44 | 33.16073 | 108.25517 | 35116 ft | 446 kts | 12° |
| 2026-05-04 12:44 | 33.22060 | 108.27659 | 35121 ft | 446 kts | 12° |
| 2026-05-04 12:45 | 33.27999 | 108.29781 | 35120 ft | 446 kts | 12° |
| 2026-05-04 12:45 | 33.33931 | 108.31946 | 35126 ft | 446 kts | 13° |
| 2026-05-04 12:46 | 33.39806 | 108.34396 | 35128 ft | 447 kts | 15° |
| 2026-05-04 12:46 | 33.45649 | 108.36953 | 35138 ft | 447 kts | 15° |
| 2026-05-04 12:47 | 33.51498 | 108.39467 | 35134 ft | 447 kts | 14° |
| 2026-05-04 12:47 | 33.57361 | 108.41934 | 35135 ft | 447 kts | 14° |
| 2026-05-04 12:48 | 33.63222 | 108.44404 | 35131 ft | 446 kts | 14° |
| 2026-05-04 12:48 | 33.69081 | 108.46882 | 35129 ft | 446 kts | 14° |
| 2026-05-04 12:49 | 33.74938 | 108.49371 | 35116 ft | 446 kts | 15° |
| 2026-05-04 12:49 | 33.80790 | 108.51863 | 35101 ft | 446 kts | 15° |
| 2026-05-04 12:50 | 33.86640 | 108.54361 | 35087 ft | 446 kts | 15° |
| 2026-05-04 12:50 | 33.92498 | 108.56856 | 35070 ft | 446 kts | 15° |
| 2026-05-04 12:51 | 33.98384 | 108.59362 | 35055 ft | 446 kts | 15° |
| 2026-05-04 12:51 | 34.04245 | 108.61869 | 35046 ft | 446 kts | 15° |
| 2026-05-04 12:52 | 34.10091 | 108.64377 | 35033 ft | 446 kts | 15° |
| 2026-05-04 12:52 | 34.15937 | 108.66881 | 35011 ft | 446 kts | 15° |
| 2026-05-04 12:53 | 34.21790 | 108.69389 | 35002 ft | 446 kts | 15° |
| 2026-05-04 12:53 | 34.27635 | 108.71900 | 34996 ft | 446 kts | 15° |
| 2026-05-04 12:54 | 34.33476 | 108.74419 | 34997 ft | 446 kts | 15° |
| 2026-05-04 12:54 | 34.39315 | 108.76940 | 34991 ft | 445 kts | 15° |
| 2026-05-04 12:55 | 34.45146 | 108.79459 | 34995 ft | 445 kts | 15° |
| 2026-05-04 12:55 | 34.50984 | 108.81975 | 35002 ft | 445 kts | 15° |
| 2026-05-04 12:56 | 34.55867 | 108.84087 | 34995 ft | 444 kts | 15° |
| 2026-05-04 12:56 | 34.61692 | 108.86609 | 34993 ft | 444 kts | 15° |
| 2026-05-04 12:57 | 34.67511 | 108.89126 | 35011 ft | 444 kts | 15° |
| 2026-05-04 12:57 | 34.73331 | 108.91654 | 35001 ft | 444 kts | 15° |
| 2026-05-04 12:58 | 34.79155 | 108.94182 | 35013 ft | 444 kts | 15° |
| 2026-05-04 12:58 | 34.84972 | 108.96717 | 35023 ft | 444 kts | 15° |
| 2026-05-04 12:59 | 34.90789 | 108.99256 | 35028 ft | 444 kts | 15° |